Capewater — PBPQ — position and weather

sailwx.info

Track history (hours):
 
Tides and Currents Weather Stations Pressure Air Temp Water Temp Dewpoint Dewpoint Depression Visibility Wind Speed Wind Dir Waves Ship Positions

Capewater

Last reported at 2015-Mar-28 04:33 UTC. Time now 2015-Mar-28 05:09 UTC.
Position N 53°55' E 009°10'.

Length 100 m; draft 5.2 m.

Type: Tanker. MMSI: 246346000.

Date/timePositionNaut miles runAvg speedWind from/ knotsBaromVisibWave heightAir tempDewpointWater temp
2015-Mar-28 04:33N 53°55' E 009°10'0 0.0
2015-Mar-28 03:33N 53°55' E 009°10'0 0.0
2015-Mar-28 02:33N 53°55' E 009°10'0 0.0
2015-Mar-28 01:33N 53°55' E 009°10'0 0.0
2015-Mar-28 00:33N 53°55' E 009°10'0 0.0
2015-Mar-27 23:33N 53°55' E 009°10'0 0.0
2015-Mar-27 22:33N 53°55' E 009°10'0 0.0
2015-Mar-27 21:33N 53°55' E 009°10'0 0.0
2015-Mar-27 20:33N 53°55' E 009°10'0 0.0
2015-Mar-27 19:33N 53°55' E 009°10'0 0.0
2015-Mar-27 18:33N 53°55' E 009°10'0 0.0
2015-Mar-27 17:33N 53°55' E 009°10'0 0.0
2015-Mar-27 16:33N 53°55' E 009°10'0 0.0
2015-Mar-27 15:33N 53°55' E 009°10'0 0.0
2015-Mar-27 14:33N 53°55' E 009°10'0 0.0
2015-Mar-27 13:33N 53°55' E 009°10'0 0.0
2015-Mar-27 12:33N 53°55' E 009°10'0 0.0
2015-Mar-27 11:33N 53°55' E 009°10'0 0.0
2015-Mar-27 10:33N 53°55' E 009°10'0 0.0
2015-Mar-27 09:30N 53°55' E 009°10'0 0.0
2015-Mar-27 08:33N 53°55' E 009°10'0 0.0
2015-Mar-27 07:33N 53°55' E 009°10'0 0.0
2015-Mar-27 06:33N 53°55' E 009°10'0 0.4
2015-Mar-27 05:34N 53°54' E 009°10'1 0.9
2015-Mar-27 04:31N 53°54' E 009°09'1 1.2
2015-Mar-27 03:33N 53°53' E 009°09'0 0.0
2015-Mar-27 02:33N 53°53' E 009°09'0 0.1
2015-Mar-27 01:33N 53°53' E 009°08'0 0.0
2015-Mar-27 00:33N 53°53' E 009°08'0 0.0
2015-Mar-26 23:33N 53°53' E 009°08'0 0.0
2015-Mar-26 22:33N 53°53' E 009°08'0 0.0
2015-Mar-26 21:33N 53°53' E 009°08'0 0.0
2015-Mar-26 20:33N 53°53' E 009°08'0 0.0
2015-Mar-26 19:33N 53°53' E 009°08'0 0.1
2015-Mar-26 18:33N 53°53' E 009°09'0 0.0
2015-Mar-26 17:30N 53°53' E 009°09'0 0.0
2015-Mar-26 16:33N 53°53' E 009°09'0 0.0
2015-Mar-26 15:33N 53°53' E 009°09'0 0.0
2015-Mar-26 14:30N 53°53' E 009°09'0 0.0
2015-Mar-26 13:33N 53°53' E 009°09'0 0.1
2015-Mar-26 12:33N 53°53' E 009°08'0 0.0
2015-Mar-26 11:33N 53°53' E 009°08'3 3.3
2015-Mar-26 10:33N 53°52' E 009°03'1010.4
2015-Mar-26 09:33N 53°51' E 008°45'1010.1
2015-Mar-26 08:33N 53°58' E 008°33'1212.1
2015-Mar-26 07:33N 53°60' E 008°13'1111.2
2015-Mar-26 06:33N 54°03' E 007°54'1313.1
2015-Mar-26 05:33N 54°09' E 007°35'1313.3
2015-Mar-26 04:33N 54°09' E 007°12'1413.6
2015-Mar-26 03:33N 54°09' E 006°49'2014.6
2015-Mar-26 02:11N 54°08' E 006°15'1015.0
2015-Mar-26 01:33N 54°06' E 005°59'1515.2
2015-Mar-26 00:32N 54°04' E 005°33'1515.2
2015-Mar-25 23:33N 54°02' E 005°08'1313.2
2015-Mar-25 22:33N 53°50' E 004°58'1414.0
2015-Mar-25 21:32N 53°37' E 004°51'1414.6
2015-Mar-25 20:33N 53°23' E 004°43'1915.4
2015-Mar-25 19:18N 53°06' E 004°28'1115.2
2015-Mar-25 18:33N 52°56' E 004°19'1514.6
2015-Mar-25 17:33N 52°44' E 004°06'1413.6
2015-Mar-25 16:33N 52°32' E 003°56'1111.5
2015-Mar-25 15:34N 52°21' E 003°52'1312.5
2015-Mar-25 14:33N 52°08' E 003°55'9 9.3
2015-Mar-25 13:33N 52°00' E 004°02'2 2.2
2015-Mar-25 12:31N 51°58' E 004°02'0 0.0
2015-Mar-25 11:31N 51°58' E 004°02'0 0.0
2015-Mar-25 10:25N 51°58' E 004°02'0 0.0
2015-Mar-25 09:31N 51°58' E 004°02'0 0.0
2015-Mar-25 08:28N 51°58' E 004°02'0 0.0
2015-Mar-25 07:31N 51°58' E 004°02'0 0.0
2015-Mar-25 06:31N 51°58' E 004°02'0 0.0
2015-Mar-25 05:31N 51°58' E 004°02'0 0.0
2015-Mar-25 04:31N 51°58' E 004°02'0 0.0
2015-Mar-25 03:31N 51°58' E 004°02'0 0.0
2015-Mar-25 02:31N 51°58' E 004°02'0 0.0
2015-Mar-25 01:31N 51°58' E 004°02'0 0.0
2015-Mar-25 00:31N 51°58' E 004°02'0 0.0
2015-Mar-24 23:31N 51°58' E 004°02'0 0.0
2015-Mar-24 22:31N 51°58' E 004°02'0 0.0
2015-Mar-24 21:31N 51°58' E 004°02'0 0.0
2015-Mar-24 20:31N 51°58' E 004°02'0 0.0
2015-Mar-24 19:34N 51°58' E 004°02'0 0.0
2015-Mar-24 18:31N 51°58' E 004°02'1 0.5
2015-Mar-24 17:33N 51°58' E 004°03'8 8.5
2015-Mar-24 16:33N 52°00' E 003°50'1211.7
2015-Mar-24 15:32N 51°57' E 003°31'4313.3
2015-Mar-24 12:19N 51°39' E 002°28'810.9
2015-Mar-24 11:33N 51°33' E 002°19'1110.9
2015-Mar-24 10:33N 51°24' E 002°10'1111.0
2015-Mar-24 09:33N 51°13' E 002°03'1111.3
2015-Mar-24 08:34N 51°08' E 001°48'1111.1
2015-Mar-24 07:33N 51°00' E 001°35'1212.0
2015-Mar-24 06:32N 50°50' E 001°25'7913.2
2015-Mar-24 00:33N 49°49' E 000°05'1414.1
2015-Mar-23 23:33N 49°37' W 000°05'1212.0
2015-Mar-23 22:33N 49°28' E 000°08'2 1.6
2015-Mar-23 21:33N 49°29' E 000°11'2 2.3
2015-Mar-23 20:33N 49°28' E 000°14'0 0.0
2015-Mar-23 19:33N 49°28' E 000°14'0 0.0
2015-Mar-23 18:33N 49°28' E 000°14'0 0.0
2015-Mar-23 17:33N 49°28' E 000°14'0 0.0
2015-Mar-23 16:33N 49°28' E 000°14'0 0.0
2015-Mar-23 15:33N 49°28' E 000°14'0 0.0
2015-Mar-23 14:33N 49°28' E 000°14'0 0.0
2015-Mar-23 13:33N 49°28' E 000°14'0 0.0
2015-Mar-23 12:33N 49°28' E 000°14'0 0.0
2015-Mar-23 11:33N 49°28' E 000°14'0 0.0
2015-Mar-23 10:33N 49°28' E 000°14'0 0.0
2015-Mar-23 09:33N 49°28' E 000°14'0 0.0
2015-Mar-23 08:33N 49°28' E 000°14'0 0.0
2015-Mar-23 07:33N 49°28' E 000°14'0 0.0
2015-Mar-23 06:33N 49°28' E 000°14'0 0.0
2015-Mar-23 05:27N 49°28' E 000°14'0 0.0
2015-Mar-23 04:33N 49°28' E 000°14'0 0.0
2015-Mar-23 03:33N 49°28' E 000°14'0 0.0
2015-Mar-23 02:33N 49°28' E 000°14'0 0.0
2015-Mar-23 01:34N 49°28' E 000°14'3 2.5
2015-Mar-23 00:34N 49°29' E 000°10'1 0.9
2015-Mar-22 23:34N 49°28' E 000°09'1010.4
2015-Mar-22 22:33N 49°31' W 000°06'8 8.2
2015-Mar-22 21:33N 49°39' W 000°10'1414.0
2015-Mar-22 20:33N 49°53' W 000°10'3913.1
2015-Mar-22 17:32N 50°31' E 000°07'1615.9
2015-Mar-22 16:33N 50°35' E 000°31'1514.9
2015-Mar-22 15:33N 50°43' E 000°51'1512.9
2015-Mar-22 14:25N 50°52' E 001°08'910.9
2015-Mar-22 13:33N 50°59' E 001°19'1010.1
2015-Mar-22 12:34N 51°06' E 001°31'1111.4
2015-Mar-22 11:34N 51°15' E 001°42'1414.3
2015-Mar-22 10:34N 51°29' E 001°45'1615.5
2015-Mar-22 09:33N 51°45' E 001°44'1211.7
2015-Mar-22 08:34N 51°54' E 001°34'10 9.6
2015-Mar-22 07:33N 51°57' E 001°19'3 2.5
2015-Mar-22 06:32N 51°57' E 001°14'0 0.0
2015-Mar-22 05:32N 51°57' E 001°14'0 0.0
2015-Mar-22 04:32N 51°57' E 001°14'0 0.0
2015-Mar-22 03:32N 51°57' E 001°14'0 0.0
2015-Mar-22 02:29N 51°57' E 001°14'0 0.0
2015-Mar-22 01:32N 51°57' E 001°14'0 0.0
2015-Mar-22 00:32N 51°57' E 001°14'0 0.0
2015-Mar-21 23:32N 51°57' E 001°14'0 0.0
2015-Mar-21 22:32N 51°57' E 001°14'0 0.0
2015-Mar-21 21:32N 51°57' E 001°14'0 0.0
2015-Mar-21 20:32N 51°57' E 001°14'0 0.0
2015-Mar-21 19:32N 51°57' E 001°14'0 0.0
2015-Mar-21 18:32N 51°57' E 001°14'0 0.0
2015-Mar-21 17:32N 51°57' E 001°14'0 0.0
2015-Mar-21 16:32N 51°57' E 001°14'0 0.0
2015-Mar-21 15:32N 51°57' E 001°14'0 0.0
2015-Mar-21 14:29N 51°57' E 001°14'0 0.0
2015-Mar-21 13:32N 51°57' E 001°14'0 0.0
2015-Mar-21 12:32N 51°57' E 001°14'0 0.0
2015-Mar-21 11:32N 51°57' E 001°14'0 0.0
2015-Mar-21 10:32N 51°57' E 001°14'0 0.0
2015-Mar-21 09:32N 51°57' E 001°14'0 0.0
2015-Mar-21 08:32N 51°57' E 001°14'1 1.2
2015-Mar-21 07:33N 51°57' E 001°16'10 9.6
2015-Mar-21 06:34N 51°57' E 001°32'0 0.4
2015-Mar-21 05:31N 51°58' E 001°32'0 0.1
2015-Mar-21 04:31N 51°58' E 001°32'0 0.0
2015-Mar-21 03:31N 51°58' E 001°32'0 0.0
2015-Mar-21 02:31N 51°58' E 001°32'0 0.0
2015-Mar-21 01:31N 51°58' E 001°32'0 0.0
2015-Mar-21 00:31N 51°58' E 001°32'0 0.1
2015-Mar-20 23:31N 51°58' E 001°32'0 0.1
2015-Mar-20 22:31N 51°58' E 001°32'0 0.0
2015-Mar-20 21:31N 51°58' E 001°32'0 0.0
2015-Mar-20 20:31N 51°58' E 001°32'0 0.0
2015-Mar-20 19:31N 51°58' E 001°32'0 0.0
2015-Mar-20 18:31N 51°58' E 001°32'0 0.1
2015-Mar-20 17:31N 51°58' E 001°32'0 0.0
2015-Mar-20 16:31N 51°58' E 001°32'0 0.0
2015-Mar-20 15:31N 51°58' E 001°32'0 0.0
2015-Mar-20 14:31N 51°58' E 001°32'0 0.0
2015-Mar-20 13:31N 51°58' E 001°32'0 0.0
2015-Mar-20 12:31N 51°58' E 001°32'0 0.1
2015-Mar-20 11:31N 51°58' E 001°32'0 0.1
2015-Mar-20 10:31N 51°58' E 001°32'0 0.0
2015-Mar-20 09:31N 51°58' E 001°32'0 0.0
2015-Mar-20 08:31N 51°58' E 001°32'0 0.0
2015-Mar-20 07:31N 51°58' E 001°32'0 0.0
2015-Mar-20 06:31N 51°58' E 001°32'0 0.0
2015-Mar-20 05:31N 51°58' E 001°32'0 0.1
2015-Mar-20 04:31N 51°58' E 001°32'0 0.0
2015-Mar-20 03:31N 51°58' E 001°32'0 0.0
2015-Mar-20 02:31N 51°58' E 001°32'0 0.0
2015-Mar-20 01:31N 51°58' E 001°32'0 0.0
2015-Mar-20 00:31N 51°58' E 001°32'0 0.1
2015-Mar-19 23:31N 51°58' E 001°32'1 1.5
2015-Mar-19 22:33N 51°56' E 001°33'9 9.3
2015-Mar-19 21:33N 51°51' E 001°45'1212.4
2015-Mar-19 20:33N 51°53' E 002°05'1614.5
2015-Mar-19 19:27N 52°00' E 002°28'3913.1
2015-Mar-19 16:29N 52°04' E 003°31'1112.3
2015-Mar-19 15:34N 52°04' E 003°50'1110.9
2015-Mar-19 14:33N 51°59' E 004°06'1010.2
2015-Mar-19 13:34N 51°54' E 004°20'1 1.0
2015-Mar-19 12:32N 51°54' E 004°22'0 0.0
2015-Mar-19 11:32N 51°54' E 004°22'0 0.0
2015-Mar-19 10:32N 51°54' E 004°22'0 0.0
2015-Mar-19 09:26N 51°54' E 004°22'0 0.0
2015-Mar-19 08:32N 51°54' E 004°22'0 0.0
2015-Mar-19 07:23N 51°54' E 004°22'0 0.0
2015-Mar-19 06:29N 51°54' E 004°22'0 0.0
2015-Mar-19 05:32N 51°54' E 004°22'0 0.0
2015-Mar-19 04:32N 51°54' E 004°22'0 0.0
2015-Mar-19 03:32N 51°54' E 004°22'0 0.0
2015-Mar-19 02:32N 51°54' E 004°22'0 0.0
2015-Mar-19 01:26N 51°54' E 004°22'0 0.0
2015-Mar-19 00:29N 51°54' E 004°22'0 0.0
2015-Mar-18 23:20N 51°54' E 004°22'0 0.0
2015-Mar-18 22:29N 51°54' E 004°22'0 0.0
2015-Mar-18 21:32N 51°54' E 004°22'0 0.0
2015-Mar-18 20:26N 51°54' E 004°22'0 0.0
2015-Mar-18 19:32N 51°54' E 004°22'0 0.0
2015-Mar-18 18:32N 51°54' E 004°22'0 0.0
2015-Mar-18 17:26N 51°54' E 004°22'0 0.0
2015-Mar-18 16:32N 51°54' E 004°22'0 0.0
2015-Mar-18 15:33N 51°54' E 004°21'8 7.7
2015-Mar-18 14:33N 51°57' E 004°10'1313.0
2015-Mar-18 13:33N 51°60' E 003°49'4 4.3
2015-Mar-18 12:32N 51°56' E 003°49'0 0.1
2015-Mar-18 11:31N 51°55' E 003°49'0 0.1
2015-Mar-18 10:31N 51°55' E 003°48'0 0.0
2015-Mar-18 09:31N 51°55' E 003°48'0 0.0
2015-Mar-18 08:31N 51°55' E 003°48'0 0.0
2015-Mar-18 07:28N 51°55' E 003°48'0 0.0
2015-Mar-18 06:31N 51°55' E 003°48'0 0.0
2015-Mar-18 05:32N 51°55' E 003°48'  
Track history (hours):
 
Tides and Currents Weather Stations Pressure Air Temp Water Temp Dewpoint Dewpoint Depression Visibility Wind Speed Wind Dir Waves Ship Positions

Capewater

Last reported at 2015-Mar-28 04:33 UTC. Time now 2015-Mar-28 05:09 UTC.
Position N 53°55' E 009°10'.

Length 100 m; draft 5.2 m.

Type: Tanker. MMSI: 246346000.

Date/timePositionNaut miles runAvg speedWind from/ knotsBaromVisibWave heightAir tempDewpointWater temp
2015-Mar-28 04:33N 53°55' E 009°10'0 0.0
2015-Mar-28 03:33N 53°55' E 009°10'0 0.0
2015-Mar-28 02:33N 53°55' E 009°10'0 0.0
2015-Mar-28 01:33N 53°55' E 009°10'0 0.0
2015-Mar-28 00:33N 53°55' E 009°10'0 0.0
2015-Mar-27 23:33N 53°55' E 009°10'0 0.0
2015-Mar-27 22:33N 53°55' E 009°10'0 0.0
2015-Mar-27 21:33N 53°55' E 009°10'0 0.0
2015-Mar-27 20:33N 53°55' E 009°10'0 0.0
2015-Mar-27 19:33N 53°55' E 009°10'0 0.0
2015-Mar-27 18:33N 53°55' E 009°10'0 0.0
2015-Mar-27 17:33N 53°55' E 009°10'0 0.0
2015-Mar-27 16:33N 53°55' E 009°10'0 0.0
2015-Mar-27 15:33N 53°55' E 009°10'0 0.0
2015-Mar-27 14:33N 53°55' E 009°10'0 0.0
2015-Mar-27 13:33N 53°55' E 009°10'0 0.0
2015-Mar-27 12:33N 53°55' E 009°10'0 0.0
2015-Mar-27 11:33N 53°55' E 009°10'0 0.0
2015-Mar-27 10:33N 53°55' E 009°10'0 0.0
2015-Mar-27 09:30N 53°55' E 009°10'0 0.0
2015-Mar-27 08:33N 53°55' E 009°10'0 0.0
2015-Mar-27 07:33N 53°55' E 009°10'0 0.0
2015-Mar-27 06:33N 53°55' E 009°10'0 0.4
2015-Mar-27 05:34N 53°54' E 009°10'1 0.9
2015-Mar-27 04:31N 53°54' E 009°09'1 1.2
2015-Mar-27 03:33N 53°53' E 009°09'0 0.0
2015-Mar-27 02:33N 53°53' E 009°09'0 0.1
2015-Mar-27 01:33N 53°53' E 009°08'0 0.0
2015-Mar-27 00:33N 53°53' E 009°08'0 0.0
2015-Mar-26 23:33N 53°53' E 009°08'0 0.0
2015-Mar-26 22:33N 53°53' E 009°08'0 0.0
2015-Mar-26 21:33N 53°53' E 009°08'0 0.0
2015-Mar-26 20:33N 53°53' E 009°08'0 0.0
2015-Mar-26 19:33N 53°53' E 009°08'0 0.1
2015-Mar-26 18:33N 53°53' E 009°09'0 0.0
2015-Mar-26 17:30N 53°53' E 009°09'0 0.0
2015-Mar-26 16:33N 53°53' E 009°09'0 0.0
2015-Mar-26 15:33N 53°53' E 009°09'0 0.0
2015-Mar-26 14:30N 53°53' E 009°09'0 0.0
2015-Mar-26 13:33N 53°53' E 009°09'0 0.1
2015-Mar-26 12:33N 53°53' E 009°08'0 0.0
2015-Mar-26 11:33N 53°53' E 009°08'3 3.3
2015-Mar-26 10:33N 53°52' E 009°03'1010.4
2015-Mar-26 09:33N 53°51' E 008°45'1010.1
2015-Mar-26 08:33N 53°58' E 008°33'1212.1
2015-Mar-26 07:33N 53°60' E 008°13'1111.2
2015-Mar-26 06:33N 54°03' E 007°54'1313.1
2015-Mar-26 05:33N 54°09' E 007°35'1313.3
2015-Mar-26 04:33N 54°09' E 007°12'1413.6
2015-Mar-26 03:33N 54°09' E 006°49'2014.6
2015-Mar-26 02:11N 54°08' E 006°15'1015.0
2015-Mar-26 01:33N 54°06' E 005°59'1515.2
2015-Mar-26 00:32N 54°04' E 005°33'1515.2
2015-Mar-25 23:33N 54°02' E 005°08'1313.2
2015-Mar-25 22:33N 53°50' E 004°58'1414.0
2015-Mar-25 21:32N 53°37' E 004°51'1414.6
2015-Mar-25 20:33N 53°23' E 004°43'1915.4
2015-Mar-25 19:18N 53°06' E 004°28'1115.2
2015-Mar-25 18:33N 52°56' E 004°19'1514.6
2015-Mar-25 17:33N 52°44' E 004°06'1413.6
2015-Mar-25 16:33N 52°32' E 003°56'1111.5
2015-Mar-25 15:34N 52°21' E 003°52'1312.5
2015-Mar-25 14:33N 52°08' E 003°55'9 9.3
2015-Mar-25 13:33N 52°00' E 004°02'2 2.2
2015-Mar-25 12:31N 51°58' E 004°02'0 0.0
2015-Mar-25 11:31N 51°58' E 004°02'0 0.0
2015-Mar-25 10:25N 51°58' E 004°02'0 0.0
2015-Mar-25 09:31N 51°58' E 004°02'0 0.0
2015-Mar-25 08:28N 51°58' E 004°02'0 0.0
2015-Mar-25 07:31N 51°58' E 004°02'0 0.0
2015-Mar-25 06:31N 51°58' E 004°02'0 0.0
2015-Mar-25 05:31N 51°58' E 004°02'0 0.0
2015-Mar-25 04:31N 51°58' E 004°02'0 0.0
2015-Mar-25 03:31N 51°58' E 004°02'0 0.0
2015-Mar-25 02:31N 51°58' E 004°02'0 0.0
2015-Mar-25 01:31N 51°58' E 004°02'0 0.0
2015-Mar-25 00:31N 51°58' E 004°02'0 0.0
2015-Mar-24 23:31N 51°58' E 004°02'0 0.0
2015-Mar-24 22:31N 51°58' E 004°02'0 0.0
2015-Mar-24 21:31N 51°58' E 004°02'0 0.0
2015-Mar-24 20:31N 51°58' E 004°02'0 0.0
2015-Mar-24 19:34N 51°58' E 004°02'0 0.0
2015-Mar-24 18:31N 51°58' E 004°02'1 0.5
2015-Mar-24 17:33N 51°58' E 004°03'8 8.5
2015-Mar-24 16:33N 52°00' E 003°50'1211.7
2015-Mar-24 15:32N 51°57' E 003°31'4313.3
2015-Mar-24 12:19N 51°39' E 002°28'810.9
2015-Mar-24 11:33N 51°33' E 002°19'1110.9
2015-Mar-24 10:33N 51°24' E 002°10'1111.0
2015-Mar-24 09:33N 51°13' E 002°03'1111.3
2015-Mar-24 08:34N 51°08' E 001°48'1111.1
2015-Mar-24 07:33N 51°00' E 001°35'1212.0
2015-Mar-24 06:32N 50°50' E 001°25'7913.2
2015-Mar-24 00:33N 49°49' E 000°05'1414.1
2015-Mar-23 23:33N 49°37' W 000°05'1212.0
2015-Mar-23 22:33N 49°28' E 000°08'2 1.6
2015-Mar-23 21:33N 49°29' E 000°11'2 2.3
2015-Mar-23 20:33N 49°28' E 000°14'0 0.0
2015-Mar-23 19:33N 49°28' E 000°14'0 0.0
2015-Mar-23 18:33N 49°28' E 000°14'0 0.0
2015-Mar-23 17:33N 49°28' E 000°14'0 0.0
2015-Mar-23 16:33N 49°28' E 000°14'0 0.0
2015-Mar-23 15:33N 49°28' E 000°14'0 0.0
2015-Mar-23 14:33N 49°28' E 000°14'0 0.0
2015-Mar-23 13:33N 49°28' E 000°14'0 0.0
2015-Mar-23 12:33N 49°28' E 000°14'0 0.0
2015-Mar-23 11:33N 49°28' E 000°14'0 0.0
2015-Mar-23 10:33N 49°28' E 000°14'0 0.0
2015-Mar-23 09:33N 49°28' E 000°14'0 0.0
2015-Mar-23 08:33N 49°28' E 000°14'0 0.0
2015-Mar-23 07:33N 49°28' E 000°14'0 0.0
2015-Mar-23 06:33N 49°28' E 000°14'0 0.0
2015-Mar-23 05:27N 49°28' E 000°14'0 0.0
2015-Mar-23 04:33N 49°28' E 000°14'0 0.0
2015-Mar-23 03:33N 49°28' E 000°14'0 0.0
2015-Mar-23 02:33N 49°28' E 000°14'0 0.0
2015-Mar-23 01:34N 49°28' E 000°14'3 2.5
2015-Mar-23 00:34N 49°29' E 000°10'1 0.9
2015-Mar-22 23:34N 49°28' E 000°09'1010.4
2015-Mar-22 22:33N 49°31' W 000°06'8 8.2
2015-Mar-22 21:33N 49°39' W 000°10'1414.0
2015-Mar-22 20:33N 49°53' W 000°10'3913.1
2015-Mar-22 17:32N 50°31' E 000°07'1615.9
2015-Mar-22 16:33N 50°35' E 000°31'1514.9
2015-Mar-22 15:33N 50°43' E 000°51'1512.9
2015-Mar-22 14:25N 50°52' E 001°08'910.9
2015-Mar-22 13:33N 50°59' E 001°19'1010.1
2015-Mar-22 12:34N 51°06' E 001°31'1111.4
2015-Mar-22 11:34N 51°15' E 001°42'1414.3
2015-Mar-22 10:34N 51°29' E 001°45'1615.5
2015-Mar-22 09:33N 51°45' E 001°44'1211.7
2015-Mar-22 08:34N 51°54' E 001°34'10 9.6
2015-Mar-22 07:33N 51°57' E 001°19'3 2.5
2015-Mar-22 06:32N 51°57' E 001°14'0 0.0
2015-Mar-22 05:32N 51°57' E 001°14'0 0.0
2015-Mar-22 04:32N 51°57' E 001°14'0 0.0
2015-Mar-22 03:32N 51°57' E 001°14'0 0.0
2015-Mar-22 02:29N 51°57' E 001°14'0 0.0
2015-Mar-22 01:32N 51°57' E 001°14'0 0.0
2015-Mar-22 00:32N 51°57' E 001°14'0 0.0
2015-Mar-21 23:32N 51°57' E 001°14'0 0.0
2015-Mar-21 22:32N 51°57' E 001°14'0 0.0
2015-Mar-21 21:32N 51°57' E 001°14'0 0.0
2015-Mar-21 20:32N 51°57' E 001°14'0 0.0
2015-Mar-21 19:32N 51°57' E 001°14'0 0.0
2015-Mar-21 18:32N 51°57' E 001°14'0 0.0
2015-Mar-21 17:32N 51°57' E 001°14'0 0.0
2015-Mar-21 16:32N 51°57' E 001°14'0 0.0
2015-Mar-21 15:32N 51°57' E 001°14'0 0.0
2015-Mar-21 14:29N 51°57' E 001°14'0 0.0
2015-Mar-21 13:32N 51°57' E 001°14'0 0.0
2015-Mar-21 12:32N 51°57' E 001°14'0 0.0
2015-Mar-21 11:32N 51°57' E 001°14'0 0.0
2015-Mar-21 10:32N 51°57' E 001°14'0 0.0
2015-Mar-21 09:32N 51°57' E 001°14'0 0.0
2015-Mar-21 08:32N 51°57' E 001°14'1 1.2
2015-Mar-21 07:33N 51°57' E 001°16'10 9.6
2015-Mar-21 06:34N 51°57' E 001°32'0 0.4
2015-Mar-21 05:31N 51°58' E 001°32'0 0.1
2015-Mar-21 04:31N 51°58' E 001°32'0 0.0
2015-Mar-21 03:31N 51°58' E 001°32'0 0.0
2015-Mar-21 02:31N 51°58' E 001°32'0 0.0
2015-Mar-21 01:31N 51°58' E 001°32'0 0.0
2015-Mar-21 00:31N 51°58' E 001°32'0 0.1
2015-Mar-20 23:31N 51°58' E 001°32'0 0.1
2015-Mar-20 22:31N 51°58' E 001°32'0 0.0
2015-Mar-20 21:31N 51°58' E 001°32'0 0.0
2015-Mar-20 20:31N 51°58' E 001°32'0 0.0
2015-Mar-20 19:31N 51°58' E 001°32'0 0.0
2015-Mar-20 18:31N 51°58' E 001°32'0 0.1
2015-Mar-20 17:31N 51°58' E 001°32'0 0.0
2015-Mar-20 16:31N 51°58' E 001°32'0 0.0
2015-Mar-20 15:31N 51°58' E 001°32'0 0.0
2015-Mar-20 14:31N 51°58' E 001°32'0 0.0
2015-Mar-20 13:31N 51°58' E 001°32'0 0.0
2015-Mar-20 12:31N 51°58' E 001°32'0 0.1
2015-Mar-20 11:31N 51°58' E 001°32'0 0.1
2015-Mar-20 10:31N 51°58' E 001°32'0 0.0
2015-Mar-20 09:31N 51°58' E 001°32'0 0.0
2015-Mar-20 08:31N 51°58' E 001°32'0 0.0
2015-Mar-20 07:31N 51°58' E 001°32'0 0.0
2015-Mar-20 06:31N 51°58' E 001°32'0 0.0
2015-Mar-20 05:31N 51°58' E 001°32'0 0.1
2015-Mar-20 04:31N 51°58' E 001°32'0 0.0
2015-Mar-20 03:31N 51°58' E 001°32'0 0.0
2015-Mar-20 02:31N 51°58' E 001°32'0 0.0
2015-Mar-20 01:31N 51°58' E 001°32'0 0.0
2015-Mar-20 00:31N 51°58' E 001°32'0 0.1
2015-Mar-19 23:31N 51°58' E 001°32'1 1.5
2015-Mar-19 22:33N 51°56' E 001°33'9 9.3
2015-Mar-19 21:33N 51°51' E 001°45'1212.4
2015-Mar-19 20:33N 51°53' E 002°05'1614.5
2015-Mar-19 19:27N 52°00' E 002°28'3913.1
2015-Mar-19 16:29N 52°04' E 003°31'1112.3
2015-Mar-19 15:34N 52°04' E 003°50'1110.9
2015-Mar-19 14:33N 51°59' E 004°06'1010.2
2015-Mar-19 13:34N 51°54' E 004°20'1 1.0
2015-Mar-19 12:32N 51°54' E 004°22'0 0.0
2015-Mar-19 11:32N 51°54' E 004°22'0 0.0
2015-Mar-19 10:32N 51°54' E 004°22'0 0.0
2015-Mar-19 09:26N 51°54' E 004°22'0 0.0
2015-Mar-19 08:32N 51°54' E 004°22'0 0.0
2015-Mar-19 07:23N 51°54' E 004°22'0 0.0
2015-Mar-19 06:29N 51°54' E 004°22'0 0.0
2015-Mar-19 05:32N 51°54' E 004°22'0 0.0
2015-Mar-19 04:32N 51°54' E 004°22'0 0.0
2015-Mar-19 03:32N 51°54' E 004°22'0 0.0
2015-Mar-19 02:32N 51°54' E 004°22'0 0.0
2015-Mar-19 01:26N 51°54' E 004°22'0 0.0
2015-Mar-19 00:29N 51°54' E 004°22'0 0.0
2015-Mar-18 23:20N 51°54' E 004°22'0 0.0
2015-Mar-18 22:29N 51°54' E 004°22'0 0.0
2015-Mar-18 21:32N 51°54' E 004°22'0 0.0
2015-Mar-18 20:26N 51°54' E 004°22'0 0.0
2015-Mar-18 19:32N 51°54' E 004°22'0 0.0
2015-Mar-18 18:32N 51°54' E 004°22'0 0.0
2015-Mar-18 17:26N 51°54' E 004°22'0 0.0
2015-Mar-18 16:32N 51°54' E 004°22'0 0.0
2015-Mar-18 15:33N 51°54' E 004°21'8 7.7
2015-Mar-18 14:33N 51°57' E 004°10'1313.0
2015-Mar-18 13:33N 51°60' E 003°49'4 4.3
2015-Mar-18 12:32N 51°56' E 003°49'0 0.1
2015-Mar-18 11:31N 51°55' E 003°49'0 0.1
2015-Mar-18 10:31N 51°55' E 003°48'0 0.0
2015-Mar-18 09:31N 51°55' E 003°48'0 0.0
2015-Mar-18 08:31N 51°55' E 003°48'0 0.0
2015-Mar-18 07:28N 51°55' E 003°48'0 0.0
2015-Mar-18 06:31N 51°55' E 003°48'0 0.0
2015-Mar-18 05:32N 51°55' E 003°48'  

Dump ship's entire track history